Time;durP1;ratioP1;P1;durP2;ratioP2;P2;SDS_P1;SDS_P2;PMS_P1;PMS_P2;Temp;Humidity;BMP_temperature;BMP_pressure;BME280_temperature;BME280_humidity;BME280_pressure;Samples;Min_cycle;Max_cycle;Signal;HPM_P1;HPM_P2
2021/03/09 00:01:03;;;;;;;28.80;16.55;;;;;;;9.90;68.63;100134.09;4999120;28;20030;-62
2021/03/09 00:03:28;;;;;;;26.88;17.52;;;;;;;9.86;68.78;100133.03;4999705;28;20026;-62
2021/03/09 00:05:54;;;;;;;26.83;16.17;;;;;;;9.89;68.81;100132.47;4999675;28;20109;-62
2021/03/09 00:08:19;;;;;;;29.85;17.35;;;;;;;9.90;68.58;100127.81;4999295;28;20026;-61
2021/03/09 00:10:44;;;;;;;29.90;17.73;;;;;;;9.80;68.85;100123.25;4993901;28;20066;-62
2021/03/09 00:13:10;;;;;;;29.02;17.70;;;;;;;9.52;68.58;100083.91;4998746;28;20041;-62
2021/03/09 00:15:35;;;;;;;33.33;17.63;;;;;;;9.90;68.65;100136.84;4999134;28;20038;-61
2021/03/09 00:18:01;;;;;;;31.63;17.85;;;;;;;9.92;68.65;100131.09;4999426;28;20033;-62
2021/03/09 00:20:26;;;;;;;29.50;17.40;;;;;;;9.90;68.52;100122.38;4997208;28;20037;-62
2021/03/09 00:22:52;;;;;;;27.58;17.55;;;;;;;9.89;68.46;100127.03;4997762;28;20071;-62
2021/03/09 00:25:17;;;;;;;27.45;17.00;;;;;;;9.87;69.01;100131.13;4999541;28;20026;-62
2021/03/09 00:27:43;;;;;;;28.02;17.67;;;;;;;9.64;68.75;100099.91;4998933;28;20050;-62
2021/03/09 00:30:08;;;;;;;27.52;16.98;;;;;;;9.83;68.48;100133.59;4999036;28;20030;-62
2021/03/09 00:32:34;;;;;;;27.58;17.92;;;;;;;9.67;68.82;100113.00;4999239;28;20050;-62
2021/03/09 00:34:59;;;;;;;28.42;17.27;;;;;;;9.63;68.58;100109.97;4993245;28;20377;-62
2021/03/09 00:37:25;;;;;;;29.00;16.73;;;;;;;9.73;68.84;100118.09;4986290;28;20057;-62
2021/03/09 00:39:50;;;;;;;29.10;17.08;;;;;;;9.79;68.81;100126.28;4998144;28;20026;-62
2021/03/09 00:42:16;;;;;;;29.98;17.42;;;;;;;9.65;68.86;100113.25;4995635;28;20029;-62
2021/03/09 00:44:41;;;;;;;24.60;16.15;;;;;;;9.77;69.02;100137.41;4998368;28;20034;-62
2021/03/09 00:47:07;;;;;;;32.38;17.70;;;;;;;9.76;68.73;100139.34;4999175;28;20026;-62
2021/03/09 00:49:32;;;;;;;26.65;17.33;;;;;;;9.73;69.16;100134.44;4995982;28;20501;-62
2021/03/09 00:51:57;;;;;;;28.67;18.80;;;;;;;9.61;68.80;100112.19;4996975;28;20034;-61
2021/03/09 00:54:23;;;;;;;27.65;17.25;;;;;;;9.51;68.95;100093.97;4993713;28;20026;-62
2021/03/09 00:56:48;;;;;;;23.65;16.38;;;;;;;9.73;68.99;100137.16;4998855;28;20057;-62
2021/03/09 00:59:14;;;;;;;30.25;17.60;;;;;;;9.63;68.90;100128.22;4998177;28;20081;-61
2021/03/09 01:01:39;;;;;;;33.00;16.92;;;;;;;9.60;69.22;100118.72;4997491;28;20045;-62
2021/03/09 01:04:05;;;;;;;25.95;17.23;;;;;;;9.66;69.30;100146.75;4998206;28;20030;-61
2021/03/09 01:06:30;;;;;;;23.95;16.10;;;;;;;9.56;69.34;100121.19;4998101;28;20437;-62
2021/03/09 01:08:55;;;;;;;25.35;17.30;;;;;;;9.53;69.36;100119.00;4998493;28;20086;-62
2021/03/09 01:11:21;;;;;;;27.83;17.10;;;;;;;9.44;69.00;100105.19;4998368;28;20034;-61
2021/03/09 01:13:46;;;;;;;25.98;16.73;;;;;;;9.57;69.38;100131.00;4998597;28;20045;-62
2021/03/09 01:16:12;;;;;;;25.23;17.60;;;;;;;9.57;69.09;100130.16;4992434;28;20125;-62
2021/03/09 01:18:37;;;;;;;25.70;16.65;;;;;;;9.49;69.21;100128.84;4998690;28;20105;-62
2021/03/09 01:21:03;;;;;;;30.13;16.95;;;;;;;9.43;69.38;100116.31;4998267;28;20041;-61
2021/03/09 01:23:29;;;;;;;27.00;17.80;;;;;;;9.42;69.32;100123.69;4994158;28;20027;-62
2021/03/09 01:25:54;;;;;;;25.13;16.95;;;;;;;9.45;68.97;100142.19;4998347;28;20038;-61
2021/03/09 01:28:20;;;;;;;27.73;16.98;;;;;;;9.43;69.01;100141.66;4998138;28;20077;-61
2021/03/09 01:30:45;;;;;;;29.48;17.40;;;;;;;9.26;69.41;100122.09;4997593;28;20449;-61
2021/03/09 01:33:11;;;;;;;28.75;16.92;;;;;;;9.29;69.17;100127.81;4995921;28;20040;-62
2021/03/09 01:35:36;;;;;;;31.85;17.17;;;;;;;9.35;69.14;100144.09;4992326;28;20065;-62
2021/03/09 01:38:03;;;;;;;27.20;16.92;;;;;;;9.29;69.15;100144.13;4998130;28;20037;-61
2021/03/09 01:40:28;;;;;;;30.17;17.73;;;;;;;9.19;69.54;100130.53;4998003;28;20034;-62
2021/03/09 01:42:53;;;;;;;26.80;17.20;;;;;;;9.24;69.57;100149.59;4997401;28;20096;-61
2021/03/09 01:45:19;;;;;;;30.50;17.77;;;;;;;9.21;69.67;100146.59;4997631;28;20034;-62
2021/03/09 01:47:48;;;;;;;34.40;17.77;;;;;;;9.19;69.50;100144.16;4998086;28;20026;-61
2021/03/09 01:50:16;;;;;;;32.45;17.65;;;;;;;9.17;69.70;100149.06;4997288;28;20070;-62
2021/03/09 01:52:43;;;;;;;26.30;17.58;;;;;;;9.14;69.67;100149.59;4993415;28;20042;-62
2021/03/09 01:55:11;;;;;;;27.67;17.23;;;;;;;9.10;69.73;100143.06;4996877;28;20465;-62
2021/03/09 01:57:38;;;;;;;29.55;18.02;;;;;;;9.07;69.75;100143.63;4992964;28;20441;-62
2021/03/09 02:00:05;;;;;;;29.55;18.38;;;;;;;9.03;69.66;100137.09;4997359;28;20611;-62
2021/03/09 02:02:31;;;;;;;25.83;17.83;;;;;;;9.04;70.24;100138.75;4997370;28;20101;-61
2021/03/09 02:04:56;;;;;;;27.58;17.80;;;;;;;9.04;70.06;100142.28;4997837;28;20053;-62
2021/03/09 02:07:21;;;;;;;32.38;17.00;;;;;;;8.98;69.82;100129.75;4997584;28;20455;-62
2021/03/09 02:09:47;;;;;;;26.92;17.63;;;;;;;8.92;70.01;100125.44;4998394;28;20026;-62
2021/03/09 02:12:22;;;;;;;27.45;17.65;;;;;;;8.96;70.25;100143.66;5005323;28;20026;-62
2021/03/09 02:15:00;;;;;;;27.65;17.55;;;;;;;8.92;70.69;100144.47;5002922;28;20077;-62
2021/03/09 02:17:44;;;;;;;27.48;17.75;;;;;;;8.89;70.70;100136.84;4997646;28;20031;-62
2021/03/09 02:20:18;;;;;;;31.27;18.27;;;;;;;8.86;70.69;100135.50;4998024;28;20026;-62
2021/03/09 02:22:53;;;;;;;30.95;19.05;;;;;;;8.83;70.66;100125.19;4996894;28;20049;-61
2021/03/09 02:25:44;;;;;;;27.13;17.60;;;;;;;8.83;70.39;100127.91;4997479;28;20445;-62
2021/03/09 02:28:20;;;;;;;29.52;18.60;;;;;;;8.80;70.35;100131.16;4982348;28;20069;-62
2021/03/09 02:30:48;;;;;;;31.30;18.60;;;;;;;8.76;70.33;100124.66;4993599;28;20053;-62
2021/03/09 02:33:18;;;;;;;26.30;18.35;;;;;;;8.77;70.85;100123.53;4989827;28;20092;-62
2021/03/09 02:36:00;;;;;;;26.88;17.20;;;;;;;8.74;70.63;100119.47;4997115;28;20041;-62
2021/03/09 02:38:28;;;;;;;34.60;19.00;;;;;;;8.73;70.72;100119.75;4996775;28;20030;-62
2021/03/09 02:40:59;;;;;;;31.58;18.08;;;;;;;8.73;70.66;100127.91;4996592;28;20030;-62
2021/03/09 02:43:27;;;;;;;29.35;18.30;;;;;;;8.72;70.51;100126.28;4995292;28;20054;-62
2021/03/09 02:45:53;;;;;;;26.55;17.63;;;;;;;8.53;70.25;100093.41;4998714;28;20022;-62
2021/03/09 02:48:24;;;;;;;25.83;18.17;;;;;;;8.71;70.66;100124.63;5000799;28;20029;-62
2021/03/09 02:50:52;;;;;;;32.78;19.92;;;;;;;8.65;70.53;100121.09;5000931;28;20029;-62
2021/03/09 02:53:18;;;;;;;30.73;19.02;;;;;;;8.62;70.54;100111.59;4999065;28;20022;-61
2021/03/09 02:55:46;;;;;;;30.10;19.02;;;;;;;8.53;70.69;100102.34;5000568;28;21549;-61
2021/03/09 02:58:17;;;;;;;31.38;22.40;;;;;;;8.32;70.47;100077.03;5000416;28;20038;-62
2021/03/09 03:00:44;;;;;;;34.15;24.92;;;;;;;8.53;70.48;100110.50;4996653;28;20378;-61
2021/03/09 03:03:15;;;;;;;39.33;24.45;;;;;;;8.33;70.77;100090.38;4998537;28;20077;-62
2021/03/09 03:05:42;;;;;;;36.78;24.50;;;;;;;8.42;70.87;100109.66;5001059;28;20041;-61
2021/03/09 03:08:10;;;;;;;33.88;23.75;;;;;;;8.31;70.82;100108.84;5000225;28;20028;-61
2021/03/09 03:10:37;;;;;;;37.58;22.27;;;;;;;8.39;71.04;100118.34;5000521;28;20092;-62
2021/03/09 03:13:07;;;;;;;32.47;19.55;;;;;;;8.34;71.24;100116.47;5000959;28;20030;-62
2021/03/09 03:15:34;;;;;;;29.30;19.40;;;;;;;8.33;70.75;100116.72;5000384;28;20033;-62
2021/03/09 03:18:01;;;;;;;28.88;19.25;;;;;;;8.34;71.05;100123.78;5000838;28;20172;-61
2021/03/09 03:20:27;;;;;;;27.02;18.00;;;;;;;7.96;70.82;100047.16;5023511;28;20062;-62
2021/03/09 03:22:54;;;;;;;27.05;19.02;;;;;;;8.30;70.73;100115.34;5000047;28;20516;-61
2021/03/09 03:25:21;;;;;;;29.38;19.42;;;;;;;8.21;70.79;100106.09;5000357;28;20030;-61
2021/03/09 03:27:49;;;;;;;30.63;18.25;;;;;;;8.22;70.56;100112.38;4999891;28;20066;-61
2021/03/09 03:30:16;;;;;;;27.67;18.65;;;;;;;8.18;70.62;100107.47;4998350;28;20109;-62
2021/03/09 03:32:42;;;;;;;32.58;18.60;;;;;;;8.15;70.26;100099.84;5000038;28;20026;-61
2021/03/09 03:35:12;;;;;;;27.90;18.35;;;;;;;8.18;70.53;100112.09;5000104;28;20058;-61
2021/03/09 03:37:39;;;;;;;32.60;19.15;;;;;;;8.01;69.95;100088.72;4993267;28;20053;-61
2021/03/09 03:40:11;;;;;;;28.88;18.95;;;;;;;8.15;70.07;100108.00;4999727;28;20033;-62
2021/03/09 03:42:41;;;;;;;25.15;17.80;;;;;;;8.08;70.26;100093.06;5000069;28;20034;-61
2021/03/09 03:45:08;;;;;;;26.67;18.17;;;;;;;8.13;69.58;100099.31;4999399;28;20084;-62
2021/03/09 03:47:34;;;;;;;26.65;17.27;;;;;;;8.11;69.81;100104.19;5000704;28;20022;-61
2021/03/09 03:50:00;;;;;;;28.10;17.50;;;;;;;8.09;69.34;100108.28;4997811;28;20030;-62
2021/03/09 03:53:02;;;;;;;25.63;17.50;;;;;;;8.07;69.65;100107.72;4996255;28;20161;-61
2021/03/09 03:55:46;;;;;;;26.00;17.50;;;;;;;7.86;69.75;100085.94;4991986;28;20377;-61
2021/03/09 03:58:20;;;;;;;29.25;18.83;;;;;;;7.96;69.89;100106.88;4999803;28;20027;-62
2021/03/09 04:00:46;;;;;;;29.20;18.38;;;;;;;7.84;70.25;100102.50;4999849;28;20046;-61
2021/03/09 04:03:14;;;;;;;25.55;17.08;;;;;;;7.92;69.93;100112.03;4997803;28;20417;-61
2021/03/09 04:05:44;;;;;;;32.35;18.50;;;;;;;7.89;70.24;100118.00;4989729;28;20117;-62
2021/03/09 04:08:10;;;;;;;29.70;17.92;;;;;;;7.90;70.20;100121.50;4995877;28;20049;-61
2021/03/09 04:10:35;;;;;;;27.33;18.33;;;;;;;7.91;70.46;100113.13;4991441;28;20906;-61
2021/03/09 04:13:01;;;;;;;27.38;17.58;;;;;;;6.77;70.38;99941.03;4999918;28;20034;-62
2021/03/09 04:15:29;;;;;;;28.83;17.73;;;;;;;7.92;70.27;100124.78;4999025;28;20036;-61
2021/03/09 04:17:56;;;;;;;30.55;18.35;;;;;;;7.90;70.41;100118.78;4999466;28;20098;-61
2021/03/09 04:20:23;;;;;;;32.05;18.60;;;;;;;7.91;70.68;100123.97;4998842;28;20033;-61
2021/03/09 04:22:50;;;;;;;28.75;18.50;;;;;;;7.93;70.29;100123.69;4996667;28;20030;-62
2021/03/09 04:25:17;;;;;;;30.48;19.33;;;;;;;7.93;70.32;100119.09;4988947;28;20090;-62
2021/03/09 04:27:44;;;;;;;26.35;18.73;;;;;;;7.81;70.55;100116.59;4997282;28;20089;-61
2021/03/09 04:30:12;;;;;;;28.77;19.15;;;;;;;7.96;70.25;100132.13;4998850;28;20363;-62
2021/03/09 04:32:38;;;;;;;33.38;20.05;;;;;;;8.00;70.31;100137.84;4999398;28;20026;-61
2021/03/09 04:35:04;;;;;;;30.95;19.50;;;;;;;8.03;69.93;100135.41;4998962;28;20041;-61
2021/03/09 04:37:31;;;;;;;30.35;19.20;;;;;;;8.05;69.90;100137.88;4999088;28;20026;-61
2021/03/09 04:39:57;;;;;;;32.55;18.90;;;;;;;8.05;70.06;100143.31;4998783;28;20466;-62
2021/03/09 04:42:23;;;;;;;31.23;19.10;;;;;;;8.05;69.88;100143.31;4999139;28;20031;-62
2021/03/09 04:44:49;;;;;;;34.30;19.08;;;;;;;8.04;70.14;100145.19;4998231;28;20433;-61
2021/03/09 04:47:16;;;;;;;31.05;19.40;;;;;;;7.55;70.11;100073.13;4999131;28;20026;-61
2021/03/09 04:49:42;;;;;;;26.55;19.05;;;;;;;8.03;69.94;100145.47;4999048;28;20393;-61
2021/03/09 04:52:11;;;;;;;34.55;19.80;;;;;;;8.00;70.17;100149.53;4996769;28;20125;-61
2021/03/09 04:54:37;;;;;;;29.63;19.58;;;;;;;7.98;70.04;100145.44;4996644;28;20034;-61
2021/03/09 04:57:02;;;;;;;28.95;19.45;;;;;;;7.91;70.22;100145.69;4996633;28;20040;-61
2021/03/09 04:59:28;;;;;;;30.20;18.42;;;;;;;7.94;69.98;100150.56;4992180;28;20026;-61
2021/03/09 05:01:53;;;;;;;30.25;19.50;;;;;;;7.91;70.31;100150.28;4997849;28;20030;-61
2021/03/09 05:04:19;;;;;;;31.58;19.77;;;;;;;7.68;70.30;100120.66;4998295;28;20100;-61
2021/03/09 05:06:45;;;;;;;35.20;19.88;;;;;;;7.86;70.28;100153.81;4997060;28;20033;-61
2021/03/09 05:09:11;;;;;;;34.50;19.90;;;;;;;7.83;70.51;100157.88;4998504;28;20034;-61
2021/03/09 05:11:37;;;;;;;28.25;18.75;;;;;;;7.81;70.46;100157.31;4998824;28;20453;-62
2021/03/09 05:14:02;;;;;;;26.58;18.75;;;;;;;7.81;70.38;100164.66;4997274;28;20022;-61
2021/03/09 05:16:27;;;;;;;26.23;18.58;;;;;;;7.80;70.38;100168.44;4998130;28;20125;-61
2021/03/09 05:18:53;;;;;;;33.22;19.92;;;;;;;7.76;70.25;100162.75;4998887;28;20538;-61
2021/03/09 05:21:19;;;;;;;29.70;18.63;;;;;;;7.74;69.95;100162.19;4998085;28;20060;-61
2021/03/09 05:23:45;;;;;;;31.50;19.10;;;;;;;7.59;70.21;100143.13;4997982;28;20068;-61
2021/03/09 05:26:10;;;;;;;30.73;19.38;;;;;;;7.68;70.23;100166.78;4997617;28;20113;-61
2021/03/09 05:28:36;;;;;;;32.83;19.83;;;;;;;7.65;70.35;100164.59;4997031;28;20051;-61
2021/03/09 05:31:02;;;;;;;28.88;18.88;;;;;;;7.62;70.00;100165.13;5003477;28;20477;-61
2021/03/09 05:33:28;;;;;;;25.20;18.38;;;;;;;7.57;69.89;100163.19;4998489;28;20030;-61
2021/03/09 05:35:54;;;;;;;29.63;19.35;;;;;;;7.50;69.73;100154.47;4997661;28;20030;-61
2021/03/09 05:38:19;;;;;;;31.08;19.00;;;;;;;7.50;70.22;100175.38;4997606;28;20045;-61
2021/03/09 05:40:45;;;;;;;29.80;20.00;;;;;;;7.49;70.05;100171.03;4997285;28;20032;-61
2021/03/09 05:43:11;;;;;;;28.45;18.40;;;;;;;7.27;70.29;100150.31;4997855;28;20092;-61
2021/03/09 05:45:37;;;;;;;30.98;19.60;;;;;;;7.39;69.83;100174.50;4997851;28;20033;-61
2021/03/09 05:48:03;;;;;;;27.58;18.48;;;;;;;7.36;69.72;100181.25;4998294;28;20088;-61
2021/03/09 05:50:28;;;;;;;34.47;20.13;;;;;;;7.34;69.76;100207.03;4997616;28;20417;-62
2021/03/09 05:52:54;;;;;;;24.00;18.00;;;;;;;7.29;69.27;100191.53;4996940;28;20040;-61
2021/03/09 05:55:19;;;;;;;29.70;18.30;;;;;;;7.25;69.13;100193.16;4997412;28;20061;-62
2021/03/09 05:57:45;;;;;;;27.83;18.40;;;;;;;7.07;68.96;100173.50;4998232;28;20030;-61
2021/03/09 06:00:12;;;;;;;29.02;18.25;;;;;;;7.19;69.00;100200.41;4997782;28;20037;-61
2021/03/09 06:02:37;;;;;;;27.35;18.50;;;;;;;7.14;68.64;100200.41;5004296;28;20388;-62
2021/03/09 06:05:05;;;;;;;25.05;17.27;;;;;;;7.12;68.63;100202.53;4996072;28;20053;-61
2021/03/09 06:07:30;;;;;;;26.23;17.73;;;;;;;7.12;68.62;100202.53;4997061;28;20029;-61
2021/03/09 06:09:56;;;;;;;30.10;18.55;;;;;;;7.09;68.30;100212.03;4996620;28;20374;-62
2021/03/09 06:12:25;;;;;;;26.05;17.52;;;;;;;7.06;68.07;100207.09;4996021;28;20057;-61
2021/03/09 06:14:59;;;;;;;29.05;19.08;;;;;;;7.07;67.76;100210.63;4997170;28;20555;-62
2021/03/09 06:17:27;;;;;;;34.78;18.40;;;;;;;7.04;67.27;100220.09;4995494;28;20061;-62
2021/03/09 06:19:53;;;;;;;28.55;18.23;;;;;;;7.00;67.45;100220.88;4995542;28;20053;-62
2021/03/09 06:22:19;;;;;;;27.05;18.33;;;;;;;6.84;67.45;100201.78;4996779;28;20034;-62
2021/03/09 06:24:47;;;;;;;25.40;18.20;;;;;;;6.99;67.34;100227.38;5001054;28;20475;-62
2021/03/09 06:27:30;;;;;;;25.65;17.58;;;;;;;7.00;66.72;100224.41;4994222;28;20030;-62
2021/03/09 06:29:56;;;;;;;24.52;16.83;;;;;;;7.00;66.96;100229.84;5001215;28;20043;-62
2021/03/09 06:32:23;;;;;;;28.13;18.65;;;;;;;6.90;66.74;100238.69;4999675;28;20034;-62
2021/03/09 06:34:54;;;;;;;27.52;18.38;;;;;;;6.99;66.43;100249.06;5001480;28;20208;-62
2021/03/09 06:37:24;;;;;;;27.38;18.10;;;;;;;6.95;66.24;100248.75;4999950;28;20076;-62
2021/03/09 06:39:54;;;;;;;30.92;19.38;;;;;;;6.90;65.62;100233.25;5000920;28;20090;-62
2021/03/09 06:42:38;;;;;;;26.63;18.17;;;;;;;6.96;65.72;100250.41;5001901;28;20045;-62
2021/03/09 06:45:14;;;;;;;30.08;18.58;;;;;;;6.96;64.89;100247.69;4999914;28;20027;-62
2021/03/09 06:47:45;;;;;;;30.30;19.27;;;;;;;6.96;64.44;100252.31;5000490;28;20019;-62
2021/03/09 06:50:32;;;;;;;30.27;18.05;;;;;;;6.89;64.40;100247.09;5001326;28;20018;-62
2021/03/09 06:53:03;;;;;;;28.65;19.13;;;;;;;6.87;64.07;100257.34;5000858;28;20030;-62
2021/03/09 06:55:30;;;;;;;26.73;18.40;;;;;;;6.85;63.27;100264.94;4999324;28;20030;-62
2021/03/09 06:58:13;;;;;;;27.45;19.00;;;;;;;6.71;61.74;100249.09;5000974;28;20022;-62
2021/03/09 07:00:42;;;;;;;29.42;19.67;;;;;;;6.74;62.70;100255.88;4988945;28;20481;-62
2021/03/09 07:03:36;;;;;;;31.48;19.90;;;;;;;6.77;62.38;100250.78;5000412;28;20073;-62
2021/03/09 07:06:02;;;;;;;30.10;19.33;;;;;;;6.74;62.17;100256.72;4996603;28;20370;-61
2021/03/09 07:08:29;;;;;;;32.55;20.17;;;;;;;6.75;62.35;100263.78;5000306;28;20084;-61
2021/03/09 07:10:55;;;;;;;30.15;20.20;;;;;;;6.78;61.98;100268.66;4999716;28;20489;-62
2021/03/09 07:13:23;;;;;;;30.50;20.25;;;;;;;6.80;61.98;100267.59;4999757;28;20097;-62
2021/03/09 07:15:50;;;;;;;32.33;20.13;;;;;;;6.76;62.31;100257.28;4997813;28;20532;-62
2021/03/09 07:18:20;;;;;;;33.53;19.85;;;;;;;6.92;62.14;100274.50;4999804;28;20019;-62
2021/03/09 07:20:47;;;;;;;28.85;19.67;;;;;;;6.96;61.60;100276.69;4997827;28;20100;-62
2021/03/09 07:23:17;;;;;;;27.58;19.15;;;;;;;6.86;61.82;100253.84;4999235;28;20116;-62
2021/03/09 07:25:48;;;;;;;30.50;19.23;;;;;;;6.99;61.37;100282.41;5000627;28;20033;-62
2021/03/09 07:28:18;;;;;;;32.80;19.48;;;;;;;7.01;61.21;100301.13;5000246;28;20373;-62
2021/03/09 07:30:46;;;;;;;28.80;20.30;;;;;;;6.98;60.83;100297.03;5000714;28;20029;-62
2021/03/09 07:33:13;;;;;;;27.98;19.27;;;;;;;6.97;60.94;100302.75;4999999;28;20413;-62
2021/03/09 07:35:39;;;;;;;28.30;20.33;;;;;;;6.99;60.90;100293.25;4997609;28;20034;-62
2021/03/09 07:38:06;;;;;;;26.92;19.45;;;;;;;6.95;61.43;100285.91;5014118;28;20018;-62
2021/03/09 07:40:36;;;;;;;33.20;19.35;;;;;;;7.06;60.83;100299.28;4983060;28;20051;-62
2021/03/09 07:43:02;;;;;;;32.67;17.92;;;;;;;7.07;61.10;100300.09;4999281;28;20022;-62
2021/03/09 07:45:34;;;;;;;29.27;18.88;;;;;;;6.87;60.85;100276.31;4999748;28;20454;-62
2021/03/09 07:48:11;;;;;;;31.48;19.52;;;;;;;7.00;60.67;100294.06;4997725;28;20042;-62
2021/03/09 07:50:40;;;;;;;26.48;19.85;;;;;;;7.11;60.63;100317.50;5000302;28;20031;-62
2021/03/09 07:53:24;;;;;;;27.67;19.65;;;;;;;7.12;60.02;100316.44;4999364;28;20065;-62
2021/03/09 07:56:16;;;;;;;31.63;19.58;;;;;;;7.15;60.08;100318.59;5000350;28;20069;-62
2021/03/09 07:58:42;;;;;;;26.33;19.45;;;;;;;6.99;60.04;100290.56;4991439;28;20376;-62
2021/03/09 08:01:11;;;;;;;29.02;19.30;;;;;;;7.23;59.75;100325.47;4998389;28;20014;-62
2021/03/09 08:03:46;;;;;;;35.35;21.23;;;;;;;7.23;59.81;100325.47;4992691;28;20389;-62
2021/03/09 08:06:13;;;;;;;33.92;19.65;;;;;;;7.31;59.84;100330.41;5011251;28;20037;-62
2021/03/09 08:08:50;;;;;;;28.35;19.33;;;;;;;7.32;58.49;100329.34;4999749;28;20041;-62
2021/03/09 08:11:18;;;;;;;27.65;18.92;;;;;;;7.30;58.96;100339.63;4999600;28;20030;-62
2021/03/09 08:13:45;;;;;;;26.58;18.67;;;;;;;7.20;58.74;100315.97;4999621;28;20026;-62
2021/03/09 08:16:38;;;;;;;27.83;18.80;;;;;;;7.34;58.14;100332.63;4999338;28;20343;-62
2021/03/09 08:19:10;;;;;;;29.88;18.83;;;;;;;7.34;58.28;100337.22;4997706;28;20168;-62
2021/03/09 08:21:38;;;;;;;30.67;19.92;;;;;;;7.41;57.96;100340.53;4996577;28;20359;-62
2021/03/09 08:24:04;;;;;;;30.20;21.80;;;;;;;7.44;57.70;100342.75;4999347;28;20053;-62
2021/03/09 08:26:29;;;;;;;30.25;19.88;;;;;;;7.52;58.05;100344.97;4999811;28;20025;-62
2021/03/09 08:28:55;;;;;;;31.33;20.00;;;;;;;7.59;57.75;100344.75;4999387;28;20047;-62
2021/03/09 08:31:20;;;;;;;30.38;19.55;;;;;;;7.64;57.49;100352.94;4989729;28;20034;-62
2021/03/09 08:33:54;;;;;;;27.15;20.30;;;;;;;7.67;56.88;100352.41;4998036;28;20026;-62
2021/03/09 08:36:26;;;;;;;30.92;20.70;;;;;;;7.74;56.10;100356.81;4998808;28;20041;-62
2021/03/09 08:39:02;;;;;;;27.98;19.85;;;;;;;7.75;54.63;100353.81;4999350;28;20417;-62
2021/03/09 08:41:41;;;;;;;30.13;20.23;;;;;;;7.77;55.25;100369.88;4998550;28;20034;-62
2021/03/09 08:44:20;;;;;;;30.83;20.88;;;;;;;7.58;54.18;100343.13;4999790;28;20030;-62
2021/03/09 08:47:10;;;;;;;29.33;20.95;;;;;;;7.71;53.84;100369.00;4998544;28;20458;-62
2021/03/09 08:49:36;;;;;;;25.15;20.25;;;;;;;7.71;54.94;100366.28;4998488;28;20370;-62
2021/03/09 08:52:31;;;;;;;28.88;20.25;;;;;;;7.70;54.76;100348.38;4992451;28;20041;-62
2021/03/09 08:54:57;;;;;;;29.77;19.25;;;;;;;7.84;54.90;100362.31;5006259;28;20034;-62
2021/03/09 08:57:26;;;;;;;28.58;20.23;;;;;;;7.82;54.23;100350.88;4998526;28;20109;-62
2021/03/09 08:59:52;;;;;;;33.53;19.95;;;;;;;7.91;53.78;100371.03;4999233;28;20053;-62
2021/03/09 09:02:19;;;;;;;30.40;20.13;;;;;;;7.96;53.90;100373.78;4998073;28;20481;-62
2021/03/09 09:04:47;;;;;;;31.10;19.65;;;;;;;8.00;53.59;100371.34;4999193;28;20026;-62
2021/03/09 09:07:29;;;;;;;29.77;20.17;;;;;;;8.06;53.09;100378.44;4997413;28;20355;-62
2021/03/09 09:09:58;;;;;;;31.48;20.45;;;;;;;7.98;52.70;100355.34;4998553;28;20046;-62
2021/03/09 09:12:26;;;;;;;30.70;20.42;;;;;;;8.15;52.63;100371.44;4998744;28;20074;-62
2021/03/09 09:15:06;;;;;;;32.13;20.30;;;;;;;8.23;51.98;100372.03;4998955;28;20030;-62
2021/03/09 09:17:32;;;;;;;30.58;19.35;;;;;;;8.29;52.15;100368.28;4997397;28;20037;-62
2021/03/09 09:20:09;;;;;;;27.40;19.30;;;;;;;8.31;51.59;100372.34;4998164;28;20103;-62
2021/03/09 09:22:35;;;;;;;27.10;19.73;;;;;;;8.34;52.35;100371.84;4996516;28;20026;-62
2021/03/09 09:25:04;;;;;;;26.85;20.25;;;;;;;8.45;52.54;100371.88;4998696;28;20038;-62
2021/03/09 09:27:43;;;;;;;31.63;20.90;;;;;;;8.60;52.26;100374.69;4997975;28;20473;-62
2021/03/09 09:30:11;;;;;;;31.90;19.80;;;;;;;8.47;51.64;100348.00;4998462;28;20026;-62
2021/03/09 09:32:52;;;;;;;25.13;19.10;;;;;;;8.59;50.73;100383.09;4998311;28;20476;-62
2021/03/09 09:35:18;;;;;;;28.80;19.70;;;;;;;8.55;50.74;100373.88;4998161;28;20470;-62
2021/03/09 09:37:48;;;;;;;32.47;20.38;;;;;;;8.54;50.50;100370.31;4996822;28;20022;-62
2021/03/09 09:40:15;;;;;;;27.70;19.58;;;;;;;8.53;50.22;100368.69;4998366;28;20077;-62
2021/03/09 09:42:41;;;;;;;27.08;19.30;;;;;;;8.44;50.02;100357.47;4998688;28;20036;-62
2021/03/09 09:45:07;;;;;;;31.25;20.30;;;;;;;8.58;50.36;100363.28;4998442;28;20022;-62
2021/03/09 09:47:33;;;;;;;31.60;20.33;;;;;;;8.58;50.11;100360.56;4997606;28;20027;-62
2021/03/09 09:49:59;;;;;;;31.00;20.42;;;;;;;8.62;50.72;100361.66;4998167;28;20030;-62
2021/03/09 09:52:24;;;;;;;30.13;20.27;;;;;;;8.65;50.47;100361.13;4996919;28;20030;-62
2021/03/09 09:54:51;;;;;;;28.42;19.40;;;;;;;8.44;49.57;100335.75;4992299;28;20053;-62
2021/03/09 09:57:17;;;;;;;24.73;19.20;;;;;;;8.66;49.82;100364.66;4997999;28;20081;-62
2021/03/09 09:59:42;;;;;;;26.08;19.42;;;;;;;8.74;49.53;100355.97;4996317;28;20030;-62
2021/03/09 10:02:27;;;;;;;29.40;19.35;;;;;;;8.78;48.93;100367.13;4997527;28;21631;-62
2021/03/09 10:04:52;;;;;;;28.50;19.48;;;;;;;8.81;49.55;100363.88;4986268;28;20037;-62
2021/03/09 10:07:22;;;;;;;30.20;19.98;;;;;;;8.87;49.20;100370.16;5001238;28;20034;-62
2021/03/09 10:10:04;;;;;;;25.38;19.05;;;;;;;8.93;48.70;100369.88;4996498;28;20102;-62
2021/03/09 10:12:37;;;;;;;28.90;19.52;;;;;;;8.92;47.70;100367.44;4999415;28;20034;-62
2021/03/09 10:15:06;;;;;;;27.85;19.48;;;;;;;8.98;48.55;100369.09;4997346;28;20466;-62
2021/03/09 10:17:32;;;;;;;26.80;19.95;;;;;;;9.02;48.30;100369.38;4992532;28;20027;-62
2021/03/09 10:19:57;;;;;;;28.08;19.50;;;;;;;9.17;48.41;100365.88;4996665;28;20032;-62
2021/03/09 10:22:25;;;;;;;27.88;19.30;;;;;;;9.19;47.70;100359.06;4995818;28;20038;-62
2021/03/09 10:24:51;;;;;;;28.63;20.27;;;;;;;9.06;47.37;100335.13;4997732;28;20481;-62
2021/03/09 10:27:23;;;;;;;30.23;18.98;;;;;;;9.23;47.23;100370.22;4997507;28;20034;-62
2021/03/09 10:29:54;;;;;;;28.50;19.88;;;;;;;9.08;47.83;100336.47;4996049;28;20042;-63
2021/03/09 10:32:20;;;;;;;33.00;20.13;;;;;;;9.32;48.16;100355.00;4993985;28;20096;-62
2021/03/09 10:34:48;;;;;;;30.13;20.45;;;;;;;9.34;47.50;100360.19;4997509;28;20037;-62
2021/03/09 10:37:16;;;;;;;27.80;20.25;;;;;;;9.41;48.04;100366.97;4993213;28;20093;-62
2021/03/09 10:39:53;;;;;;;28.65;20.17;;;;;;;9.49;47.86;100359.34;4996917;28;20073;-62
2021/03/09 10:42:35;;;;;;;27.08;19.98;;;;;;;9.45;46.87;100356.38;4997550;28;20405;-62
2021/03/09 10:45:15;;;;;;;30.90;20.60;;;;;;;9.48;47.03;100364.00;4997215;28;20029;-62
2021/03/09 10:47:42;;;;;;;29.67;19.10;;;;;;;9.53;47.12;100357.75;4990210;28;20022;-62
2021/03/09 10:50:09;;;;;;;26.20;19.85;;;;;;;9.55;47.15;100358.25;4996785;28;20072;-62
2021/03/09 10:52:34;;;;;;;32.60;19.48;;;;;;;9.61;47.15;100362.63;4996504;28;20041;-62
2021/03/09 10:54:59;;;;;;;29.70;19.35;;;;;;;9.72;47.61;100360.72;4997403;28;20470;-62
2021/03/09 10:57:25;;;;;;;32.75;21.02;;;;;;;9.72;46.71;100358.81;4996966;28;20029;-62
2021/03/09 10:59:50;;;;;;;32.60;19.90;;;;;;;9.78;46.67;100370.50;4996389;28;20037;-62
2021/03/09 11:02:16;;;;;;;30.10;20.20;;;;;;;9.84;46.89;100369.41;4996592;28;20026;-62
2021/03/09 11:04:41;;;;;;;25.70;19.40;;;;;;;9.83;46.74;100354.19;4998661;28;20026;-62
2021/03/09 11:07:07;;;;;;;25.25;18.63;;;;;;;10.03;46.47;100364.22;5000705;28;20022;-62
2021/03/09 11:09:32;;;;;;;26.60;20.10;;;;;;;10.17;46.26;100372.63;5000013;28;20496;-62
2021/03/09 11:11:57;;;;;;;28.80;19.55;;;;;;;10.22;45.64;100375.34;5001617;28;20109;-62
2021/03/09 11:14:23;;;;;;;26.90;19.20;;;;;;;10.22;45.38;100380.78;5000758;28;20102;-62
2021/03/09 11:16:48;;;;;;;25.88;18.75;;;;;;;10.19;45.00;100373.16;4989833;28;20045;-62
2021/03/09 11:19:14;;;;;;;25.13;19.10;;;;;;;10.26;45.02;100367.44;5000479;28;20089;-62
2021/03/09 11:21:39;;;;;;;27.45;19.60;;;;;;;10.04;44.65;100340.50;4996710;28;20157;-62
2021/03/09 11:24:06;;;;;;;25.35;18.80;;;;;;;10.10;44.77;100342.13;5000924;28;20030;-62